sensor_id;sensor_type;location;lat;lon;timestamp;P1;durP1;ratioP1;P2;durP2;ratioP2
55350;SDS011;62194;49.480;10.986;2024-03-07T00:00:06;18.48;;;12.24;;
55350;SDS011;62194;49.480;10.986;2024-03-07T00:00:19;17.31;;;11.81;;
55350;SDS011;62194;49.480;10.986;2024-03-07T00:00:26;17.52;;;12.14;;
55350;SDS011;62194;49.480;10.986;2024-03-07T00:00:32;18.80;;;12.53;;
55350;SDS011;62194;49.480;10.986;2024-03-07T00:00:38;19.17;;;12.80;;
55350;SDS011;62194;49.480;10.986;2024-03-07T00:00:44;18.98;;;13.05;;
55350;SDS011;62194;49.480;10.986;2024-03-07T00:00:49;20.08;;;13.15;;
55350;SDS011;62194;49.480;10.986;2024-03-07T00:00:58;19.33;;;13.03;;
55350;SDS011;62194;49.480;10.986;2024-03-07T00:01:05;19.00;;;12.90;;
55350;SDS011;62194;49.480;10.986;2024-03-07T00:01:10;18.97;;;12.83;;
55350;SDS011;62194;49.480;10.986;2024-03-07T00:01:15;18.43;;;12.37;;
55350;SDS011;62194;49.480;10.986;2024-03-07T00:01:21;17.35;;;12.20;;
55350;SDS011;62194;49.480;10.986;2024-03-07T00:01:26;17.60;;;12.13;;
55350;SDS011;62194;49.480;10.986;2024-03-07T00:01:32;17.77;;;12.25;;
55350;SDS011;62194;49.480;10.986;2024-03-07T00:01:37;18.23;;;12.70;;
55350;SDS011;62194;49.480;10.986;2024-03-07T00:01:42;19.30;;;13.10;;
55350;SDS011;62194;49.480;10.986;2024-03-07T00:01:47;20.42;;;13.63;;
55350;SDS011;62194;49.480;10.986;2024-03-07T00:01:53;20.67;;;13.67;;
55350;SDS011;62194;49.480;10.986;2024-03-07T00:01:58;20.83;;;13.80;;
55350;SDS011;62194;49.480;10.986;2024-03-07T00:02:03;20.27;;;13.60;;
55350;SDS011;62194;49.480;10.986;2024-03-07T00:02:12;19.40;;;13.07;;
55350;SDS011;62194;49.480;10.986;2024-03-07T00:02:17;18.80;;;12.87;;
55350;SDS011;62194;49.480;10.986;2024-03-07T00:02:22;18.23;;;12.77;;
55350;SDS011;62194;49.480;10.986;2024-03-07T00:02:28;17.90;;;12.82;;
55350;SDS011;62194;49.480;10.986;2024-03-07T00:02:34;18.03;;;12.80;;
55350;SDS011;62194;49.480;10.986;2024-03-07T00:02:39;18.67;;;13.00;;
55350;SDS011;62194;49.480;10.986;2024-03-07T00:02:45;17.88;;;12.98;;
55350;SDS011;62194;49.480;10.986;2024-03-07T00:02:55;18.97;;;13.43;;
55350;SDS011;62194;49.480;10.986;2024-03-07T00:03:00;19.75;;;13.57;;
55350;SDS011;62194;49.480;10.986;2024-03-07T00:03:06;19.90;;;13.90;;
55350;SDS011;62194;49.480;10.986;2024-03-07T00:03:11;20.40;;;14.00;;
55350;SDS011;62194;49.480;10.986;2024-03-07T00:03:16;20.47;;;13.90;;
55350;SDS011;62194;49.480;10.986;2024-03-07T00:03:22;20.17;;;13.80;;
55350;SDS011;62194;49.480;10.986;2024-03-07T00:03:29;19.67;;;13.60;;
55350;SDS011;62194;49.480;10.986;2024-03-07T00:03:34;19.90;;;13.83;;
55350;SDS011;62194;49.480;10.986;2024-03-07T00:03:39;20.10;;;13.87;;
55350;SDS011;62194;49.480;10.986;2024-03-07T00:03:45;20.00;;;13.80;;
55350;SDS011;62194;49.480;10.986;2024-03-07T00:03:50;20.30;;;13.90;;
55350;SDS011;62194;49.480;10.986;2024-03-07T00:03:55;20.17;;;14.10;;
55350;SDS011;62194;49.480;10.986;2024-03-07T00:04:00;20.23;;;14.20;;
55350;SDS011;62194;49.480;10.986;2024-03-07T00:04:06;20.13;;;13.80;;
55350;SDS011;62194;49.480;10.986;2024-03-07T00:04:11;20.27;;;13.95;;
55350;SDS011;62194;49.480;10.986;2024-03-07T00:04:16;20.73;;;14.33;;
55350;SDS011;62194;49.480;10.986;2024-03-07T00:04:22;20.87;;;14.30;;
55350;SDS011;62194;49.480;10.986;2024-03-07T00:04:27;20.95;;;14.38;;
55350;SDS011;62194;49.480;10.986;2024-03-07T00:04:32;20.70;;;14.47;;
55350;SDS011;62194;49.480;10.986;2024-03-07T00:04:37;21.20;;;14.20;;
55350;SDS011;62194;49.480;10.986;2024-03-07T00:04:43;21.02;;;14.05;;
55350;SDS011;62194;49.480;10.986;2024-03-07T00:04:49;21.07;;;13.93;;
55350;SDS011;62194;49.480;10.986;2024-03-07T00:04:54;21.15;;;13.82;;
55350;SDS011;62194;49.480;10.986;2024-03-07T00:04:59;20.37;;;13.27;;
55350;SDS011;62194;49.480;10.986;2024-03-07T00:05:05;20.15;;;13.38;;
55350;SDS011;62194;49.480;10.986;2024-03-07T00:05:11;19.47;;;13.60;;
55350;SDS011;62194;49.480;10.986;2024-03-07T00:05:20;20.07;;;13.49;;
55350;SDS011;62194;49.480;10.986;2024-03-07T00:05:29;20.33;;;13.75;;
55350;SDS011;62194;49.480;10.986;2024-03-07T00:05:34;20.40;;;13.70;;
55350;SDS011;62194;49.480;10.986;2024-03-07T00:05:40;20.50;;;13.57;;
55350;SDS011;62194;49.480;10.986;2024-03-07T00:05:45;19.63;;;13.27;;
55350;SDS011;62194;49.480;10.986;2024-03-07T00:05:50;20.07;;;13.37;;
55350;SDS011;62194;49.480;10.986;2024-03-07T00:05:56;21.20;;;13.57;;
55350;SDS011;62194;49.480;10.986;2024-03-07T00:06:01;22.23;;;13.57;;
55350;SDS011;62194;49.480;10.986;2024-03-07T00:06:08;22.30;;;13.54;;
55350;SDS011;62194;49.480;10.986;2024-03-07T00:06:13;22.93;;;13.93;;
55350;SDS011;62194;49.480;10.986;2024-03-07T00:06:19;22.38;;;13.85;;
55350;SDS011;62194;49.480;10.986;2024-03-07T00:06:26;20.93;;;13.50;;
55350;SDS011;62194;49.480;10.986;2024-03-07T00:06:31;19.30;;;13.27;;
55350;SDS011;62194;49.480;10.986;2024-03-07T00:06:36;19.60;;;13.50;;
55350;SDS011;62194;49.480;10.986;2024-03-07T00:06:41;19.43;;;13.53;;
55350;SDS011;62194;49.480;10.986;2024-03-07T00:06:47;19.08;;;13.23;;
55350;SDS011;62194;49.480;10.986;2024-03-07T00:06:53;19.30;;;13.00;;
55350;SDS011;62194;49.480;10.986;2024-03-07T00:06:59;19.77;;;13.27;;
55350;SDS011;62194;49.480;10.986;2024-03-07T00:07:04;20.10;;;13.30;;
55350;SDS011;62194;49.480;10.986;2024-03-07T00:07:10;19.70;;;13.18;;
55350;SDS011;62194;49.480;10.986;2024-03-07T00:07:15;19.87;;;13.27;;
55350;SDS011;62194;49.480;10.986;2024-03-07T00:07:20;19.95;;;13.90;;
55350;SDS011;62194;49.480;10.986;2024-03-07T00:07:26;20.13;;;14.00;;
55350;SDS011;62194;49.480;10.986;2024-03-07T00:07:31;20.23;;;14.17;;
55350;SDS011;62194;49.480;10.986;2024-03-07T00:07:36;19.93;;;14.10;;
55350;SDS011;62194;49.480;10.986;2024-03-07T00:07:42;21.00;;;14.30;;
55350;SDS011;62194;49.480;10.986;2024-03-07T00:07:48;21.30;;;14.05;;
55350;SDS011;62194;49.480;10.986;2024-03-07T00:07:53;20.70;;;13.60;;
55350;SDS011;62194;49.480;10.986;2024-03-07T00:07:59;20.67;;;13.57;;
55350;SDS011;62194;49.480;10.986;2024-03-07T00:08:04;21.70;;;13.55;;
55350;SDS011;62194;49.480;10.986;2024-03-07T00:08:10;21.45;;;13.50;;
55350;SDS011;62194;49.480;10.986;2024-03-07T00:08:16;21.87;;;13.63;;
55350;SDS011;62194;49.480;10.986;2024-03-07T00:08:21;22.45;;;13.90;;
55350;SDS011;62194;49.480;10.986;2024-03-07T00:08:26;23.93;;;14.17;;
55350;SDS011;62194;49.480;10.986;2024-03-07T00:08:33;23.77;;;14.13;;
55350;SDS011;62194;49.480;10.986;2024-03-07T00:08:38;23.42;;;14.24;;
55350;SDS011;62194;49.480;10.986;2024-03-07T00:08:43;23.30;;;14.40;;
55350;SDS011;62194;49.480;10.986;2024-03-07T00:08:49;22.83;;;14.50;;
55350;SDS011;62194;49.480;10.986;2024-03-07T00:08:54;21.97;;;14.40;;
55350;SDS011;62194;49.480;10.986;2024-03-07T00:09:00;21.45;;;14.55;;
55350;SDS011;62194;49.480;10.986;2024-03-07T00:09:05;21.63;;;14.83;;
55350;SDS011;62194;49.480;10.986;2024-03-07T00:09:11;22.88;;;15.13;;
55350;SDS011;62194;49.480;10.986;2024-03-07T00:09:16;23.03;;;15.33;;
55350;SDS011;62194;49.480;10.986;2024-03-07T00:09:21;23.50;;;15.47;;
55350;SDS011;62194;49.480;10.986;2024-03-07T00:09:31;24.13;;;15.50;;
55350;SDS011;62194;49.480;10.986;2024-03-07T00:09:37;23.85;;;15.28;;
55350;SDS011;62194;49.480;10.986;2024-03-07T00:09:42;23.25;;;14.85;;
55350;SDS011;62194;49.480;10.986;2024-03-07T00:09:47;23.10;;;14.63;;
55350;SDS011;62194;49.480;10.986;2024-03-07T00:09:53;22.27;;;14.40;;
55350;SDS011;62194;49.480;10.986;2024-03-07T00:09:58;22.13;;;14.20;;
55350;SDS011;62194;49.480;10.986;2024-03-07T00:10:04;22.07;;;13.93;;
55350;SDS011;62194;49.480;10.986;2024-03-07T00:10:12;21.93;;;13.95;;
55350;SDS011;62194;49.480;10.986;2024-03-07T00:10:17;22.10;;;14.32;;
55350;SDS011;62194;49.480;10.986;2024-03-07T00:10:23;22.40;;;14.30;;
55350;SDS011;62194;49.480;10.986;2024-03-07T00:10:28;22.33;;;14.45;;
55350;SDS011;62194;49.480;10.986;2024-03-07T00:10:33;22.67;;;14.63;;
55350;SDS011;62194;49.480;10.986;2024-03-07T00:10:41;22.30;;;14.80;;
55350;SDS011;62194;49.480;10.986;2024-03-07T00:10:48;22.67;;;14.63;;
55350;SDS011;62194;49.480;10.986;2024-03-07T00:10:54;22.30;;;14.70;;
55350;SDS011;62194;49.480;10.986;2024-03-07T00:11:00;22.10;;;14.63;;
55350;SDS011;62194;49.480;10.986;2024-03-07T00:11:06;21.60;;;14.55;;
55350;SDS011;62194;49.480;10.986;2024-03-07T00:11:12;21.83;;;14.77;;
55350;SDS011;62194;49.480;10.986;2024-03-07T00:11:17;21.73;;;14.87;;
55350;SDS011;62194;49.480;10.986;2024-03-07T00:11:23;21.53;;;14.93;;
55350;SDS011;62194;49.480;10.986;2024-03-07T00:11:29;21.85;;;15.30;;
55350;SDS011;62194;49.480;10.986;2024-03-07T00:11:35;22.70;;;15.63;;
55350;SDS011;62194;49.480;10.986;2024-03-07T00:11:40;22.57;;;15.60;;
55350;SDS011;62194;49.480;10.986;2024-03-07T00:11:46;22.13;;;15.27;;
55350;SDS011;62194;49.480;10.986;2024-03-07T00:11:51;22.25;;;15.15;;
55350;SDS011;62194;49.480;10.986;2024-03-07T00:11:56;22.33;;;14.73;;
55350;SDS011;62194;49.480;10.986;2024-03-07T00:12:02;21.70;;;14.50;;
55350;SDS011;62194;49.480;10.986;2024-03-07T00:12:08;20.43;;;13.80;;
55350;SDS011;62194;49.480;10.986;2024-03-07T00:12:13;20.83;;;13.93;;
55350;SDS011;62194;49.480;10.986;2024-03-07T00:12:19;20.52;;;14.02;;
55350;SDS011;62194;49.480;10.986;2024-03-07T00:12:24;20.87;;;14.30;;
55350;SDS011;62194;49.480;10.986;2024-03-07T00:12:39;21.88;;;14.23;;
55350;SDS011;62194;49.480;10.986;2024-03-07T00:12:45;24.35;;;14.61;;
55350;SDS011;62194;49.480;10.986;2024-03-07T00:12:50;24.20;;;14.17;;
55350;SDS011;62194;49.480;10.986;2024-03-07T00:12:56;23.20;;;14.00;;
55350;SDS011;62194;49.480;10.986;2024-03-07T00:13:01;22.80;;;13.90;;
55350;SDS011;62194;49.480;10.986;2024-03-07T00:13:08;21.74;;;13.80;;
55350;SDS011;62194;49.480;10.986;2024-03-07T00:13:13;20.23;;;13.77;;
55350;SDS011;62194;49.480;10.986;2024-03-07T00:13:18;20.80;;;13.90;;
55350;SDS011;62194;49.480;10.986;2024-03-07T00:13:24;21.67;;;14.13;;
55350;SDS011;62194;49.480;10.986;2024-03-07T00:13:29;21.70;;;14.10;;
55350;SDS011;62194;49.480;10.986;2024-03-07T00:13:34;21.57;;;14.10;;
55350;SDS011;62194;49.480;10.986;2024-03-07T00:13:40;22.44;;;14.02;;
55350;SDS011;62194;49.480;10.986;2024-03-07T00:13:46;22.83;;;14.30;;
55350;SDS011;62194;49.480;10.986;2024-03-07T00:13:51;22.87;;;14.20;;
55350;SDS011;62194;49.480;10.986;2024-03-07T00:13:56;22.97;;;14.23;;
55350;SDS011;62194;49.480;10.986;2024-03-07T00:14:01;22.92;;;14.48;;
55350;SDS011;62194;49.480;10.986;2024-03-07T00:14:06;22.33;;;14.53;;
55350;SDS011;62194;49.480;10.986;2024-03-07T00:14:12;22.33;;;14.63;;
55350;SDS011;62194;49.480;10.986;2024-03-07T00:14:17;22.23;;;14.73;;
55350;SDS011;62194;49.480;10.986;2024-03-07T00:14:23;22.27;;;14.87;;
55350;SDS011;62194;49.480;10.986;2024-03-07T00:14:32;22.17;;;14.50;;
55350;SDS011;62194;49.480;10.986;2024-03-07T00:14:39;21.60;;;14.30;;
55350;SDS011;62194;49.480;10.986;2024-03-07T00:14:48;21.40;;;14.34;;
55350;SDS011;62194;49.480;10.986;2024-03-07T00:14:53;20.80;;;13.93;;
55350;SDS011;62194;49.480;10.986;2024-03-07T00:14:58;21.20;;;14.40;;
55350;SDS011;62194;49.480;10.986;2024-03-07T00:15:03;21.73;;;14.35;;
55350;SDS011;62194;49.480;10.986;2024-03-07T00:15:11;21.93;;;14.17;;
55350;SDS011;62194;49.480;10.986;2024-03-07T00:15:17;22.77;;;14.30;;
55350;SDS011;62194;49.480;10.986;2024-03-07T00:15:23;22.53;;;14.43;;
55350;SDS011;62194;49.480;10.986;2024-03-07T00:15:28;21.92;;;14.02;;
55350;SDS011;62194;49.480;10.986;2024-03-07T00:15:35;21.95;;;14.35;;
55350;SDS011;62194;49.480;10.986;2024-03-07T00:15:40;22.05;;;14.57;;
55350;SDS011;62194;49.480;10.986;2024-03-07T00:15:46;21.83;;;14.52;;
55350;SDS011;62194;49.480;10.986;2024-03-07T00:15:51;21.83;;;14.53;;
55350;SDS011;62194;49.480;10.986;2024-03-07T00:15:57;21.80;;;14.57;;
55350;SDS011;62194;49.480;10.986;2024-03-07T00:16:02;21.40;;;14.33;;
55350;SDS011;62194;49.480;10.986;2024-03-07T00:16:09;21.67;;;13.97;;
55350;SDS011;62194;49.480;10.986;2024-03-07T00:16:15;21.47;;;14.00;;
55350;SDS011;62194;49.480;10.986;2024-03-07T00:16:20;21.73;;;14.07;;
55350;SDS011;62194;49.480;10.986;2024-03-07T00:16:26;23.40;;;14.32;;
55350;SDS011;62194;49.480;10.986;2024-03-07T00:16:32;24.23;;;14.70;;
55350;SDS011;62194;49.480;10.986;2024-03-07T00:16:38;23.90;;;14.74;;
55350;SDS011;62194;49.480;10.986;2024-03-07T00:16:43;24.50;;;14.87;;
55350;SDS011;62194;49.480;10.986;2024-03-07T00:16:49;24.20;;;14.68;;
55350;SDS011;62194;49.480;10.986;2024-03-07T00:16:54;23.53;;;14.60;;
55350;SDS011;62194;49.480;10.986;2024-03-07T00:17:06;23.33;;;14.68;;
55350;SDS011;62194;49.480;10.986;2024-03-07T00:17:11;23.10;;;14.73;;
55350;SDS011;62194;49.480;10.986;2024-03-07T00:17:18;22.12;;;14.60;;
55350;SDS011;62194;49.480;10.986;2024-03-07T00:17:24;22.20;;;14.63;;
55350;SDS011;62194;49.480;10.986;2024-03-07T00:17:29;21.63;;;14.53;;
55350;SDS011;62194;49.480;10.986;2024-03-07T00:17:35;21.57;;;14.50;;
55350;SDS011;62194;49.480;10.986;2024-03-07T00:17:40;22.25;;;14.82;;
55350;SDS011;62194;49.480;10.986;2024-03-07T00:17:46;23.10;;;15.20;;
55350;SDS011;62194;49.480;10.986;2024-03-07T00:17:51;22.77;;;15.23;;
55350;SDS011;62194;49.480;10.986;2024-03-07T00:17:56;23.80;;;15.27;;
55350;SDS011;62194;49.480;10.986;2024-03-07T00:18:01;23.67;;;15.13;;
55350;SDS011;62194;49.480;10.986;2024-03-07T00:18:07;24.13;;;15.43;;
55350;SDS011;62194;49.480;10.986;2024-03-07T00:18:12;23.40;;;15.20;;
55350;SDS011;62194;49.480;10.986;2024-03-07T00:18:20;23.57;;;15.07;;
55350;SDS011;62194;49.480;10.986;2024-03-07T00:18:25;22.83;;;15.10;;
55350;SDS011;62194;49.480;10.986;2024-03-07T00:18:30;22.03;;;15.17;;
55350;SDS011;62194;49.480;10.986;2024-03-07T00:18:35;22.07;;;15.13;;
55350;SDS011;62194;49.480;10.986;2024-03-07T00:18:41;21.73;;;14.90;;
55350;SDS011;62194;49.480;10.986;2024-03-07T00:18:47;21.92;;;14.93;;
55350;SDS011;62194;49.480;10.986;2024-03-07T00:18:52;22.13;;;15.13;;
55350;SDS011;62194;49.480;10.986;2024-03-07T00:18:57;22.10;;;15.00;;
55350;SDS011;62194;49.480;10.986;2024-03-07T00:19:02;22.77;;;14.70;;
55350;SDS011;62194;49.480;10.986;2024-03-07T00:19:07;23.27;;;14.68;;
55350;SDS011;62194;49.480;10.986;2024-03-07T00:19:13;23.10;;;14.60;;
55350;SDS011;62194;49.480;10.986;2024-03-07T00:19:19;22.54;;;14.44;;
55350;SDS011;62194;49.480;10.986;2024-03-07T00:19:26;22.75;;;14.43;;
55350;SDS011;62194;49.480;10.986;2024-03-07T00:19:31;21.10;;;14.20;;
55350;SDS011;62194;49.480;10.986;2024-03-07T00:19:37;20.30;;;14.20;;
55350;SDS011;62194;49.480;10.986;2024-03-07T00:19:42;21.00;;;14.37;;
55350;SDS011;62194;49.480;10.986;2024-03-07T00:19:48;21.06;;;14.46;;
55350;SDS011;62194;49.480;10.986;2024-03-07T00:19:54;20.53;;;14.50;;
55350;SDS011;62194;49.480;10.986;2024-03-07T00:20:00;21.25;;;14.82;;
55350;SDS011;62194;49.480;10.986;2024-03-07T00:20:05;21.30;;;14.93;;
55350;SDS011;62194;49.480;10.986;2024-03-07T00:20:19;21.76;;;15.16;;
55350;SDS011;62194;49.480;10.986;2024-03-07T00:20:25;21.90;;;15.07;;
55350;SDS011;62194;49.480;10.986;2024-03-07T00:20:30;21.42;;;14.85;;
55350;SDS011;62194;49.480;10.986;2024-03-07T00:20:35;21.37;;;14.50;;
55350;SDS011;62194;49.480;10.986;2024-03-07T00:20:41;20.90;;;14.23;;
55350;SDS011;62194;49.480;10.986;2024-03-07T00:20:47;20.16;;;14.12;;
55350;SDS011;62194;49.480;10.986;2024-03-07T00:20:53;19.83;;;13.87;;
55350;SDS011;62194;49.480;10.986;2024-03-07T00:20:59;20.84;;;14.10;;
55350;SDS011;62194;49.480;10.986;2024-03-07T00:21:04;20.67;;;14.07;;
55350;SDS011;62194;49.480;10.986;2024-03-07T00:21:10;20.27;;;13.93;;
55350;SDS011;62194;49.480;10.986;2024-03-07T00:21:15;19.88;;;13.70;;
55350;SDS011;62194;49.480;10.986;2024-03-07T00:21:20;20.23;;;13.83;;
55350;SDS011;62194;49.480;10.986;2024-03-07T00:21:26;19.47;;;13.80;;
55350;SDS011;62194;49.480;10.986;2024-03-07T00:21:31;19.45;;;13.57;;
55350;SDS011;62194;49.480;10.986;2024-03-07T00:21:36;19.67;;;13.70;;
55350;SDS011;62194;49.480;10.986;2024-03-07T00:21:42;20.03;;;13.70;;
55350;SDS011;62194;49.480;10.986;2024-03-07T00:21:47;20.25;;;13.77;;
55350;SDS011;62194;49.480;10.986;2024-03-07T00:21:53;20.83;;;13.93;;
55350;SDS011;62194;49.480;10.986;2024-03-07T00:21:59;21.02;;;14.02;;
55350;SDS011;62194;49.480;10.986;2024-03-07T00:22:04;20.45;;;13.88;;
55350;SDS011;62194;49.480;10.986;2024-03-07T00:22:09;20.27;;;13.90;;
55350;SDS011;62194;49.480;10.986;2024-03-07T00:22:14;20.03;;;13.80;;
55350;SDS011;62194;49.480;10.986;2024-03-07T00:22:20;20.23;;;13.77;;
55350;SDS011;62194;49.480;10.986;2024-03-07T00:22:25;20.70;;;14.02;;
55350;SDS011;62194;49.480;10.986;2024-03-07T00:22:31;20.77;;;14.47;;
55350;SDS011;62194;49.480;10.986;2024-03-07T00:22:37;22.50;;;14.68;;
55350;SDS011;62194;49.480;10.986;2024-03-07T00:22:42;22.83;;;14.77;;
55350;SDS011;62194;49.480;10.986;2024-03-07T00:22:48;22.67;;;14.60;;
55350;SDS011;62194;49.480;10.986;2024-03-07T00:22:54;22.10;;;14.43;;
55350;SDS011;62194;49.480;10.986;2024-03-07T00:22:59;21.70;;;14.23;;
55350;SDS011;62194;49.480;10.986;2024-03-07T00:23:05;20.75;;;14.05;;
55350;SDS011;62194;49.480;10.986;2024-03-07T00:23:11;21.02;;;14.27;;
55350;SDS011;62194;49.480;10.986;2024-03-07T00:23:16;20.37;;;14.07;;
55350;SDS011;62194;49.480;10.986;2024-03-07T00:23:21;20.90;;;14.13;;
55350;SDS011;62194;49.480;10.986;2024-03-07T00:23:27;20.98;;;13.95;;
55350;SDS011;62194;49.480;10.986;2024-03-07T00:23:32;20.90;;;14.07;;
55350;SDS011;62194;49.480;10.986;2024-03-07T00:23:38;20.85;;;14.20;;
55350;SDS011;62194;49.480;10.986;2024-03-07T00:23:44;20.65;;;14.25;;
55350;SDS011;62194;49.480;10.986;2024-03-07T00:23:49;20.10;;;14.07;;
55350;SDS011;62194;49.480;10.986;2024-03-07T00:23:54;19.63;;;13.83;;
55350;SDS011;62194;49.480;10.986;2024-03-07T00:24:00;19.38;;;13.43;;
55350;SDS011;62194;49.480;10.986;2024-03-07T00:24:05;19.47;;;13.30;;
55350;SDS011;62194;49.480;10.986;2024-03-07T00:24:11;19.45;;;13.20;;
55350;SDS011;62194;49.480;10.986;2024-03-07T00:24:16;19.43;;;13.33;;
55350;SDS011;62194;49.480;10.986;2024-03-07T00:24:21;19.17;;;13.23;;
55350;SDS011;62194;49.480;10.986;2024-03-07T00:24:27;19.43;;;13.57;;
55350;SDS011;62194;49.480;10.986;2024-03-07T00:24:33;20.60;;;14.02;;
55350;SDS011;62194;49.480;10.986;2024-03-07T00:24:38;20.30;;;14.00;;
55350;SDS011;62194;49.480;10.986;2024-03-07T00:24:43;20.33;;;13.93;;
55350;SDS011;62194;49.480;10.986;2024-03-07T00:24:52;21.01;;;14.10;;
55350;SDS011;62194;49.480;10.986;2024-03-07T00:24:58;21.03;;;14.33;;
55350;SDS011;62194;49.480;10.986;2024-03-07T00:25:04;20.80;;;14.07;;
55350;SDS011;62194;49.480;10.986;2024-03-07T00:25:10;20.60;;;13.87;;
55350;SDS011;62194;49.480;10.986;2024-03-07T00:25:18;19.95;;;13.85;;
55350;SDS011;62194;49.480;10.986;2024-03-07T00:25:24;20.77;;;13.53;;
55350;SDS011;62194;49.480;10.986;2024-03-07T00:25:31;20.70;;;13.44;;
55350;SDS011;62194;49.480;10.986;2024-03-07T00:25:36;20.27;;;13.73;;
55350;SDS011;62194;49.480;10.986;2024-03-07T00:25:42;20.20;;;13.63;;
55350;SDS011;62194;49.480;10.986;2024-03-07T00:25:47;20.25;;;13.68;;
55350;SDS011;62194;49.480;10.986;2024-03-07T00:25:55;19.88;;;13.72;;
55350;SDS011;62194;49.480;10.986;2024-03-07T00:26:01;19.33;;;13.47;;
55350;SDS011;62194;49.480;10.986;2024-03-07T00:26:06;19.53;;;13.27;;
55350;SDS011;62194;49.480;10.986;2024-03-07T00:26:12;20.60;;;13.34;;
55350;SDS011;62194;49.480;10.986;2024-03-07T00:26:17;20.60;;;13.37;;
55350;SDS011;62194;49.480;10.986;2024-03-07T00:26:23;20.17;;;13.43;;
55350;SDS011;62194;49.480;10.986;2024-03-07T00:26:28;20.50;;;13.77;;
55350;SDS011;62194;49.480;10.986;2024-03-07T00:26:35;20.35;;;13.82;;
55350;SDS011;62194;49.480;10.986;2024-03-07T00:26:41;19.52;;;14.07;;
55350;SDS011;62194;49.480;10.986;2024-03-07T00:26:46;20.50;;;14.07;;
55350;SDS011;62194;49.480;10.986;2024-03-07T00:26:51;20.20;;;13.85;;
55350;SDS011;62194;49.480;10.986;2024-03-07T00:26:57;20.07;;;13.43;;
55350;SDS011;62194;49.480;10.986;2024-03-07T00:27:02;20.30;;;13.65;;
55350;SDS011;62194;49.480;10.986;2024-03-07T00:27:08;20.75;;;13.70;;
55350;SDS011;62194;49.480;10.986;2024-03-07T00:27:14;20.47;;;13.67;;
55350;SDS011;62194;49.480;10.986;2024-03-07T00:27:19;20.90;;;13.88;;
55350;SDS011;62194;49.480;10.986;2024-03-07T00:27:25;20.75;;;14.10;;
55350;SDS011;62194;49.480;10.986;2024-03-07T00:27:31;20.77;;;14.00;;
55350;SDS011;62194;49.480;10.986;2024-03-07T00:27:37;20.45;;;13.93;;
55350;SDS011;62194;49.480;10.986;2024-03-07T00:27:43;20.80;;;13.90;;
55350;SDS011;62194;49.480;10.986;2024-03-07T00:27:50;21.07;;;13.77;;
55350;SDS011;62194;49.480;10.986;2024-03-07T00:27:58;21.22;;;13.57;;
55350;SDS011;62194;49.480;10.986;2024-03-07T00:28:07;20.79;;;13.27;;
55350;SDS011;62194;49.480;10.986;2024-03-07T00:28:12;19.77;;;12.90;;
55350;SDS011;62194;49.480;10.986;2024-03-07T00:28:22;19.34;;;12.96;;
55350;SDS011;62194;49.480;10.986;2024-03-07T00:28:27;20.98;;;13.60;;
55350;SDS011;62194;49.480;10.986;2024-03-07T00:28:37;21.64;;;13.95;;
55350;SDS011;62194;49.480;10.986;2024-03-07T00:28:44;21.82;;;14.10;;
55350;SDS011;62194;49.480;10.986;2024-03-07T00:28:49;21.40;;;13.97;;
55350;SDS011;62194;49.480;10.986;2024-03-07T00:28:56;20.13;;;14.00;;
55350;SDS011;62194;49.480;10.986;2024-03-07T00:29:01;19.80;;;13.82;;
55350;SDS011;62194;49.480;10.986;2024-03-07T00:29:07;20.08;;;14.13;;
55350;SDS011;62194;49.480;10.986;2024-03-07T00:29:12;19.87;;;14.03;;
55350;SDS011;62194;49.480;10.986;2024-03-07T00:29:18;19.63;;;13.93;;
55350;SDS011;62194;49.480;10.986;2024-03-07T00:29:24;20.70;;;13.93;;
55350;SDS011;62194;49.480;10.986;2024-03-07T00:29:30;20.43;;;14.03;;
55350;SDS011;62194;49.480;10.986;2024-03-07T00:29:36;20.13;;;13.95;;
55350;SDS011;62194;49.480;10.986;2024-03-07T00:29:42;21.90;;;14.00;;
55350;SDS011;62194;49.480;10.986;2024-03-07T00:29:48;22.50;;;14.43;;
55350;SDS011;62194;49.480;10.986;2024-03-07T00:29:58;22.67;;;14.70;;
55350;SDS011;62194;49.480;10.986;2024-03-07T00:30:07;22.67;;;14.27;;
55350;SDS011;62194;49.480;10.986;2024-03-07T00:30:18;21.26;;;14.00;;
55350;SDS011;62194;49.480;10.986;2024-03-07T00:30:23;20.87;;;13.47;;
55350;SDS011;62194;49.480;10.986;2024-03-07T00:30:29;21.25;;;13.05;;
55350;SDS011;62194;49.480;10.986;2024-03-07T00:30:34;21.63;;;13.27;;
55350;SDS011;62194;49.480;10.986;2024-03-07T00:30:39;23.02;;;13.43;;
55350;SDS011;62194;49.480;10.986;2024-03-07T00:30:45;22.40;;;13.60;;
55350;SDS011;62194;49.480;10.986;2024-03-07T00:30:50;22.90;;;13.87;;
55350;SDS011;62194;49.480;10.986;2024-03-07T00:30:55;22.63;;;13.93;;
55350;SDS011;62194;49.480;10.986;2024-03-07T00:31:01;22.07;;;14.00;;
55350;SDS011;62194;49.480;10.986;2024-03-07T00:31:06;22.57;;;14.17;;
55350;SDS011;62194;49.480;10.986;2024-03-07T00:31:14;22.77;;;14.23;;
55350;SDS011;62194;49.480;10.986;2024-03-07T00:31:20;22.33;;;14.25;;
55350;SDS011;62194;49.480;10.986;2024-03-07T00:31:25;21.83;;;14.23;;
55350;SDS011;62194;49.480;10.986;2024-03-07T00:31:31;22.53;;;14.47;;
55350;SDS011;62194;49.480;10.986;2024-03-07T00:31:36;21.02;;;14.32;;
55350;SDS011;62194;49.480;10.986;2024-03-07T00:31:42;20.80;;;14.13;;
55350;SDS011;62194;49.480;10.986;2024-03-07T00:31:47;20.90;;;13.90;;
55350;SDS011;62194;49.480;10.986;2024-03-07T00:31:52;21.48;;;14.23;;
55350;SDS011;62194;49.480;10.986;2024-03-07T00:31:58;20.90;;;13.65;;
55350;SDS011;62194;49.480;10.986;2024-03-07T00:32:04;21.13;;;13.90;;
55350;SDS011;62194;49.480;10.986;2024-03-07T00:32:09;21.00;;;13.63;;
55350;SDS011;62194;49.480;10.986;2024-03-07T00:32:15;21.50;;;13.90;;
55350;SDS011;62194;49.480;10.986;2024-03-07T00:32:20;21.23;;;13.90;;
55350;SDS011;62194;49.480;10.986;2024-03-07T00:32:25;21.67;;;13.98;;
55350;SDS011;62194;49.480;10.986;2024-03-07T00:32:34;21.27;;;14.07;;
55350;SDS011;62194;49.480;10.986;2024-03-07T00:32:44;20.93;;;14.23;;
55350;SDS011;62194;49.480;10.986;2024-03-07T00:32:50;21.17;;;14.07;;
55350;SDS011;62194;49.480;10.986;2024-03-07T00:32:56;20.83;;;13.85;;
55350;SDS011;62194;49.480;10.986;2024-03-07T00:33:01;21.20;;;13.85;;
55350;SDS011;62194;49.480;10.986;2024-03-07T00:33:07;22.13;;;13.73;;
55350;SDS011;62194;49.480;10.986;2024-03-07T00:33:13;22.90;;;13.88;;
55350;SDS011;62194;49.480;10.986;2024-03-07T00:33:18;22.52;;;13.93;;
55350;SDS011;62194;49.480;10.986;2024-03-07T00:33:26;23.05;;;14.00;;
55350;SDS011;62194;49.480;10.986;2024-03-07T00:33:31;23.50;;;14.37;;
55350;SDS011;62194;49.480;10.986;2024-03-07T00:33:37;22.05;;;14.27;;
55350;SDS011;62194;49.480;10.986;2024-03-07T00:33:43;20.97;;;13.93;;
55350;SDS011;62194;49.480;10.986;2024-03-07T00:33:48;20.98;;;13.95;;
55350;SDS011;62194;49.480;10.986;2024-03-07T00:33:53;20.60;;;14.03;;
55350;SDS011;62194;49.480;10.986;2024-03-07T00:33:59;19.67;;;13.70;;
55350;SDS011;62194;49.480;10.986;2024-03-07T00:34:04;19.00;;;13.38;;